sensor_id;sensor_type;location;lat;lon;timestamp;P1;durP1;ratioP1;P2;durP2;ratioP2
23590;SDS011;11973;52.098;7.582;2023-05-19T03:47:18;9.05;;;8.32;;
23590;SDS011;11973;52.098;7.582;2023-05-19T03:50:12;9.15;;;8.35;;
23590;SDS011;11973;52.098;7.582;2023-05-19T03:52:51;9.65;;;8.70;;
23590;SDS011;11973;52.098;7.582;2023-05-19T03:55:27;9.98;;;8.75;;
23590;SDS011;11973;52.098;7.582;2023-05-19T03:57:54;9.10;;;8.25;;
23590;SDS011;11973;52.098;7.582;2023-05-19T04:00:21;8.95;;;8.05;;
23590;SDS011;11973;52.098;7.582;2023-05-19T04:02:49;10.27;;;8.25;;
23590;SDS011;11973;52.098;7.582;2023-05-19T04:05:15;12.75;;;8.85;;
23590;SDS011;11973;52.098;7.582;2023-05-19T04:07:41;8.98;;;8.32;;
23590;SDS011;11973;52.098;7.582;2023-05-19T04:10:07;8.95;;;8.18;;
23590;SDS011;11973;52.098;7.582;2023-05-19T04:12:33;8.77;;;8.18;;
23590;SDS011;11973;52.098;7.582;2023-05-19T04:14:59;9.52;;;8.52;;
23590;SDS011;11973;52.098;7.582;2023-05-19T04:17:25;9.73;;;8.85;;
23590;SDS011;11973;52.098;7.582;2023-05-19T04:19:54;9.20;;;8.50;;
23590;SDS011;11973;52.098;7.582;2023-05-19T04:22:20;8.88;;;8.18;;
23590;SDS011;11973;52.098;7.582;2023-05-19T04:24:46;9.10;;;8.23;;
23590;SDS011;11973;52.098;7.582;2023-05-19T04:27:13;9.38;;;8.40;;
23590;SDS011;11973;52.098;7.582;2023-05-19T04:29:40;9.13;;;8.40;;
23590;SDS011;11973;52.098;7.582;2023-05-19T04:32:06;9.38;;;8.35;;
23590;SDS011;11973;52.098;7.582;2023-05-19T04:34:33;8.50;;;7.80;;
23590;SDS011;11973;52.098;7.582;2023-05-19T04:37:01;9.02;;;8.15;;
23590;SDS011;11973;52.098;7.582;2023-05-19T04:39:27;8.82;;;7.95;;
23590;SDS011;11973;52.098;7.582;2023-05-19T04:41:53;8.38;;;7.57;;
23590;SDS011;11973;52.098;7.582;2023-05-19T04:44:21;7.90;;;7.40;;
23590;SDS011;11973;52.098;7.582;2023-05-19T04:46:48;8.02;;;7.50;;
23590;SDS011;11973;52.098;7.582;2023-05-19T04:49:18;9.00;;;8.25;;
23590;SDS011;11973;52.098;7.582;2023-05-19T04:51:45;8.65;;;7.95;;
23590;SDS011;11973;52.098;7.582;2023-05-19T04:54:16;10.27;;;7.88;;
23590;SDS011;11973;52.098;7.582;2023-05-19T04:56:42;9.43;;;8.60;;
23590;SDS011;11973;52.098;7.582;2023-05-19T04:59:08;8.80;;;8.00;;
23590;SDS011;11973;52.098;7.582;2023-05-19T05:01:35;9.00;;;8.32;;
23590;SDS011;11973;52.098;7.582;2023-05-19T05:04:05;10.90;;;7.97;;
23590;SDS011;11973;52.098;7.582;2023-05-19T05:06:31;10.18;;;7.93;;
23590;SDS011;11973;52.098;7.582;2023-05-19T05:08:57;8.95;;;8.32;;
23590;SDS011;11973;52.098;7.582;2023-05-19T05:11:24;8.80;;;8.10;;
23590;SDS011;11973;52.098;7.582;2023-05-19T05:13:51;10.02;;;8.13;;
23590;SDS011;11973;52.098;7.582;2023-05-19T05:16:17;10.02;;;8.43;;
23590;SDS011;11973;52.098;7.582;2023-05-19T05:18:43;7.47;;;6.97;;
23590;SDS011;11973;52.098;7.582;2023-05-19T05:21:11;7.80;;;7.15;;
23590;SDS011;11973;52.098;7.582;2023-05-19T05:23:37;7.45;;;6.88;;
23590;SDS011;11973;52.098;7.582;2023-05-19T05:26:11;7.82;;;6.18;;
23590;SDS011;11973;52.098;7.582;2023-05-19T05:28:44;5.72;;;5.53;;
23590;SDS011;11973;52.098;7.582;2023-05-19T05:31:10;7.90;;;6.38;;
23590;SDS011;11973;52.098;7.582;2023-05-19T05:33:36;6.10;;;5.80;;
23590;SDS011;11973;52.098;7.582;2023-05-19T05:36:03;6.30;;;5.80;;
23590;SDS011;11973;52.098;7.582;2023-05-19T05:38:29;6.78;;;6.18;;
23590;SDS011;11973;52.098;7.582;2023-05-19T05:40:55;6.30;;;5.70;;
23590;SDS011;11973;52.098;7.582;2023-05-19T05:43:21;6.32;;;5.70;;
23590;SDS011;11973;52.098;7.582;2023-05-19T05:45:53;6.40;;;5.80;;
23590;SDS011;11973;52.098;7.582;2023-05-19T05:48:18;5.82;;;5.53;;
23590;SDS011;11973;52.098;7.582;2023-05-19T05:50:45;10.23;;;5.50;;
23590;SDS011;11973;52.098;7.582;2023-05-19T05:53:18;6.03;;;5.43;;
23590;SDS011;11973;52.098;7.582;2023-05-19T05:55:47;4.90;;;4.60;;
23590;SDS011;11973;52.098;7.582;2023-05-19T05:58:14;5.63;;;5.10;;
23590;SDS011;11973;52.098;7.582;2023-05-19T06:00:41;5.57;;;4.85;;
23590;SDS011;11973;52.098;7.582;2023-05-19T06:03:07;5.75;;;5.18;;
23590;SDS011;11973;52.098;7.582;2023-05-19T06:05:35;5.13;;;4.82;;
23590;SDS011;11973;52.098;7.582;2023-05-19T06:08:01;5.55;;;5.25;;
23590;SDS011;11973;52.098;7.582;2023-05-19T06:10:27;5.72;;;5.30;;
23590;SDS011;11973;52.098;7.582;2023-05-19T06:12:53;5.72;;;5.10;;
23590;SDS011;11973;52.098;7.582;2023-05-19T06:15:20;6.07;;;4.97;;
23590;SDS011;11973;52.098;7.582;2023-05-19T06:18:04;4.88;;;4.65;;
23590;SDS011;11973;52.098;7.582;2023-05-19T06:20:30;5.03;;;4.63;;
23590;SDS011;11973;52.098;7.582;2023-05-19T06:22:55;5.60;;;5.10;;
23590;SDS011;11973;52.098;7.582;2023-05-19T06:25:24;4.80;;;4.50;;
23590;SDS011;11973;52.098;7.582;2023-05-19T06:27:50;4.85;;;4.00;;
23590;SDS011;11973;52.098;7.582;2023-05-19T06:30:17;4.57;;;4.30;;
23590;SDS011;11973;52.098;7.582;2023-05-19T06:32:55;4.03;;;3.92;;
23590;SDS011;11973;52.098;7.582;2023-05-19T06:35:22;4.32;;;4.00;;
23590;SDS011;11973;52.098;7.582;2023-05-19T06:37:48;4.35;;;4.05;;
23590;SDS011;11973;52.098;7.582;2023-05-19T06:40:14;4.32;;;3.95;;
23590;SDS011;11973;52.098;7.582;2023-05-19T06:42:41;6.10;;;4.00;;
23590;SDS011;11973;52.098;7.582;2023-05-19T06:45:22;5.38;;;3.25;;
23590;SDS011;11973;52.098;7.582;2023-05-19T06:47:49;3.35;;;3.08;;
23590;SDS011;11973;52.098;7.582;2023-05-19T06:50:15;3.45;;;3.28;;
23590;SDS011;11973;52.098;7.582;2023-05-19T06:52:42;3.10;;;2.90;;
23590;SDS011;11973;52.098;7.582;2023-05-19T06:55:08;3.03;;;2.72;;
23590;SDS011;11973;52.098;7.582;2023-05-19T06:57:36;2.97;;;2.53;;
23590;SDS011;11973;52.098;7.582;2023-05-19T07:00:03;3.00;;;2.53;;
23590;SDS011;11973;52.098;7.582;2023-05-19T07:02:31;2.88;;;2.30;;
23590;SDS011;11973;52.098;7.582;2023-05-19T07:04:57;3.90;;;2.60;;
23590;SDS011;11973;52.098;7.582;2023-05-19T07:07:23;2.47;;;2.25;;
23590;SDS011;11973;52.098;7.582;2023-05-19T07:09:50;2.78;;;2.38;;
23590;SDS011;11973;52.098;7.582;2023-05-19T07:12:16;1.70;;;1.70;;
23590;SDS011;11973;52.098;7.582;2023-05-19T07:14:42;1.95;;;1.80;;
23590;SDS011;11973;52.098;7.582;2023-05-19T07:17:09;3.10;;;1.80;;
23590;SDS011;11973;52.098;7.582;2023-05-19T07:19:37;2.78;;;2.13;;
23590;SDS011;11973;52.098;7.582;2023-05-19T07:22:02;2.30;;;2.08;;
23590;SDS011;11973;52.098;7.582;2023-05-19T07:24:28;3.60;;;1.83;;
23590;SDS011;11973;52.098;7.582;2023-05-19T07:26:55;4.95;;;1.95;;
23590;SDS011;11973;52.098;7.582;2023-05-19T07:29:21;1.88;;;1.77;;
23590;SDS011;11973;52.098;7.582;2023-05-19T07:31:47;1.88;;;1.77;;
23590;SDS011;11973;52.098;7.582;2023-05-19T07:34:18;3.20;;;2.03;;
23590;SDS011;11973;52.098;7.582;2023-05-19T07:36:44;3.20;;;2.00;;
23590;SDS011;11973;52.098;7.582;2023-05-19T07:39:10;2.35;;;1.98;;
23590;SDS011;11973;52.098;7.582;2023-05-19T07:41:36;1.98;;;1.83;;
23590;SDS011;11973;52.098;7.582;2023-05-19T07:44:01;3.05;;;1.48;;
23590;SDS011;11973;52.098;7.582;2023-05-19T07:46:32;2.47;;;1.58;;
23590;SDS011;11973;52.098;7.582;2023-05-19T07:48:58;2.30;;;1.88;;
23590;SDS011;11973;52.098;7.582;2023-05-19T07:51:24;1.73;;;1.67;;
23590;SDS011;11973;52.098;7.582;2023-05-19T07:53:50;3.90;;;1.55;;
23590;SDS011;11973;52.098;7.582;2023-05-19T07:56:15;1.50;;;1.38;;
23590;SDS011;11973;52.098;7.582;2023-05-19T07:58:41;2.58;;;1.65;;
23590;SDS011;11973;52.098;7.582;2023-05-19T08:01:07;2.10;;;1.58;;
23590;SDS011;11973;52.098;7.582;2023-05-19T08:03:32;2.65;;;1.58;;
23590;SDS011;11973;52.098;7.582;2023-05-19T08:05:58;1.65;;;1.50;;
23590;SDS011;11973;52.098;7.582;2023-05-19T08:08:24;2.25;;;1.05;;
23590;SDS011;11973;52.098;7.582;2023-05-19T08:10:50;3.47;;;1.48;;
23590;SDS011;11973;52.098;7.582;2023-05-19T08:13:16;2.03;;;1.45;;
23590;SDS011;11973;52.098;7.582;2023-05-19T08:15:42;1.25;;;1.17;;
23590;SDS011;11973;52.098;7.582;2023-05-19T08:18:08;1.58;;;1.48;;
23590;SDS011;11973;52.098;7.582;2023-05-19T08:20:33;1.17;;;1.15;;
23590;SDS011;11973;52.098;7.582;2023-05-19T08:22:59;3.38;;;1.40;;
23590;SDS011;11973;52.098;7.582;2023-05-19T08:25:25;2.58;;;1.50;;
23590;SDS011;11973;52.098;7.582;2023-05-19T08:27:51;1.42;;;1.33;;
23590;SDS011;11973;52.098;7.582;2023-05-19T08:30:17;2.25;;;1.38;;
23590;SDS011;11973;52.098;7.582;2023-05-19T08:32:43;1.35;;;0.93;;
23590;SDS011;11973;52.098;7.582;2023-05-19T08:35:08;2.97;;;1.38;;
23590;SDS011;11973;52.098;7.582;2023-05-19T08:37:35;1.38;;;1.27;;
23590;SDS011;11973;52.098;7.582;2023-05-19T08:40:03;1.98;;;1.25;;
23590;SDS011;11973;52.098;7.582;2023-05-19T08:42:30;1.60;;;1.50;;
23590;SDS011;11973;52.098;7.582;2023-05-19T08:45:00;3.30;;;1.27;;
23590;SDS011;11973;52.098;7.582;2023-05-19T08:47:27;2.13;;;1.30;;
23590;SDS011;11973;52.098;7.582;2023-05-19T08:50:00;2.15;;;1.20;;
23590;SDS011;11973;52.098;7.582;2023-05-19T08:52:37;1.85;;;1.35;;
23590;SDS011;11973;52.098;7.582;2023-05-19T08:57:46;4.05;;;1.30;;
23590;SDS011;11973;52.098;7.582;2023-05-19T09:00:14;1.17;;;1.13;;
23590;SDS011;11973;52.098;7.582;2023-05-19T09:02:42;1.63;;;1.52;;
23590;SDS011;11973;52.098;7.582;2023-05-19T09:05:09;1.25;;;1.10;;
23590;SDS011;11973;52.098;7.582;2023-05-19T09:07:35;2.55;;;1.10;;
23590;SDS011;11973;52.098;7.582;2023-05-19T09:10:02;3.90;;;1.27;;
23590;SDS011;11973;52.098;7.582;2023-05-19T09:12:28;2.15;;;1.20;;
23590;SDS011;11973;52.098;7.582;2023-05-19T09:14:54;1.48;;;1.30;;
23590;SDS011;11973;52.098;7.582;2023-05-19T09:17:21;1.55;;;1.10;;
23590;SDS011;11973;52.098;7.582;2023-05-19T09:19:47;2.00;;;1.20;;
23590;SDS011;11973;52.098;7.582;2023-05-19T09:22:16;2.10;;;1.58;;
23590;SDS011;11973;52.098;7.582;2023-05-19T09:24:43;3.15;;;1.23;;
23590;SDS011;11973;52.098;7.582;2023-05-19T09:27:10;2.80;;;1.40;;
23590;SDS011;11973;52.098;7.582;2023-05-19T09:29:40;3.88;;;1.60;;
23590;SDS011;11973;52.098;7.582;2023-05-19T09:32:06;1.50;;;1.40;;
23590;SDS011;11973;52.098;7.582;2023-05-19T09:34:32;1.73;;;1.33;;
23590;SDS011;11973;52.098;7.582;2023-05-19T09:36:58;1.52;;;1.20;;
23590;SDS011;11973;52.098;7.582;2023-05-19T09:39:24;1.20;;;1.20;;
23590;SDS011;11973;52.098;7.582;2023-05-19T09:41:56;1.75;;;1.30;;
23590;SDS011;11973;52.098;7.582;2023-05-19T09:44:23;3.22;;;1.08;;
23590;SDS011;11973;52.098;7.582;2023-05-19T09:46:56;1.08;;;1.08;;
23590;SDS011;11973;52.098;7.582;2023-05-19T09:49:23;2.75;;;1.45;;
23590;SDS011;11973;52.098;7.582;2023-05-19T09:51:53;1.85;;;1.30;;
23590;SDS011;11973;52.098;7.582;2023-05-19T09:54:21;1.60;;;1.50;;
23590;SDS011;11973;52.098;7.582;2023-05-19T09:56:56;1.48;;;1.38;;
23590;SDS011;11973;52.098;7.582;2023-05-19T09:59:27;2.92;;;1.50;;
23590;SDS011;11973;52.098;7.582;2023-05-19T10:01:54;1.33;;;1.23;;
23590;SDS011;11973;52.098;7.582;2023-05-19T10:04:21;1.20;;;1.08;;
23590;SDS011;11973;52.098;7.582;2023-05-19T10:06:49;3.22;;;1.20;;
23590;SDS011;11973;52.098;7.582;2023-05-19T10:09:21;1.50;;;1.50;;
23590;SDS011;11973;52.098;7.582;2023-05-19T10:11:51;2.33;;;1.30;;
23590;SDS011;11973;52.098;7.582;2023-05-19T10:14:25;3.10;;;1.40;;
23590;SDS011;11973;52.098;7.582;2023-05-19T10:16:53;1.38;;;1.27;;
23590;SDS011;11973;52.098;7.582;2023-05-19T10:19:20;2.10;;;1.30;;
23590;SDS011;11973;52.098;7.582;2023-05-19T10:21:47;1.25;;;1.08;;
23590;SDS011;11973;52.098;7.582;2023-05-19T10:24:13;1.35;;;1.25;;
23590;SDS011;11973;52.098;7.582;2023-05-19T10:26:40;2.80;;;1.48;;
23590;SDS011;11973;52.098;7.582;2023-05-19T10:29:10;1.58;;;1.20;;
23590;SDS011;11973;52.098;7.582;2023-05-19T10:31:38;1.52;;;1.33;;
23590;SDS011;11973;52.098;7.582;2023-05-19T10:39:45;1.63;;;1.40;;
23590;SDS011;11973;52.098;7.582;2023-05-19T10:42:15;4.22;;;1.20;;
23590;SDS011;11973;52.098;7.582;2023-05-19T10:45:12;2.58;;;1.40;;
23590;SDS011;11973;52.098;7.582;2023-05-19T10:47:41;2.00;;;1.17;;
23590;SDS011;11973;52.098;7.582;2023-05-19T10:50:08;2.13;;;1.42;;
23590;SDS011;11973;52.098;7.582;2023-05-19T10:52:35;1.77;;;1.30;;
23590;SDS011;11973;52.098;7.582;2023-05-19T10:55:02;3.80;;;1.20;;
23590;SDS011;11973;52.098;7.582;2023-05-19T10:57:32;1.52;;;0.90;;
23590;SDS011;11973;52.098;7.582;2023-05-19T11:00:03;2.60;;;1.45;;
23590;SDS011;11973;52.098;7.582;2023-05-19T11:02:50;1.45;;;1.33;;
23590;SDS011;11973;52.098;7.582;2023-05-19T11:05:24;1.27;;;1.20;;
23590;SDS011;11973;52.098;7.582;2023-05-19T11:07:54;1.00;;;1.00;;
23590;SDS011;11973;52.098;7.582;2023-05-19T11:10:21;1.85;;;1.13;;
23590;SDS011;11973;52.098;7.582;2023-05-19T11:12:48;1.17;;;1.17;;
23590;SDS011;11973;52.098;7.582;2023-05-19T11:15:14;1.00;;;1.00;;
23590;SDS011;11973;52.098;7.582;2023-05-19T11:17:41;4.68;;;1.17;;
23590;SDS011;11973;52.098;7.582;2023-05-19T11:20:19;0.93;;;0.93;;
23590;SDS011;11973;52.098;7.582;2023-05-19T11:22:59;1.60;;;1.50;;
23590;SDS011;11973;52.098;7.582;2023-05-19T11:25:41;1.40;;;1.30;;
23590;SDS011;11973;52.098;7.582;2023-05-19T11:28:11;1.05;;;1.05;;
23590;SDS011;11973;52.098;7.582;2023-05-19T11:30:44;2.35;;;1.17;;
23590;SDS011;11973;52.098;7.582;2023-05-19T11:33:11;1.40;;;1.30;;
23590;SDS011;11973;52.098;7.582;2023-05-19T11:35:39;1.77;;;1.20;;
23590;SDS011;11973;52.098;7.582;2023-05-19T11:38:06;1.27;;;1.23;;
23590;SDS011;11973;52.098;7.582;2023-05-19T11:40:32;2.13;;;1.40;;
23590;SDS011;11973;52.098;7.582;2023-05-19T11:42:58;2.95;;;1.20;;
23590;SDS011;11973;52.098;7.582;2023-05-19T11:45:26;1.50;;;1.40;;
23590;SDS011;11973;52.098;7.582;2023-05-19T11:47:56;1.30;;;1.30;;
23590;SDS011;11973;52.098;7.582;2023-05-19T11:50:23;3.75;;;1.30;;
23590;SDS011;11973;52.098;7.582;2023-05-19T11:52:50;2.58;;;1.55;;
23590;SDS011;11973;52.098;7.582;2023-05-19T11:55:16;1.80;;;1.30;;
23590;SDS011;11973;52.098;7.582;2023-05-19T12:00:25;1.10;;;1.02;;
23590;SDS011;11973;52.098;7.582;2023-05-19T12:08:33;1.60;;;1.50;;
23590;SDS011;11973;52.098;7.582;2023-05-19T12:10:59;1.48;;;1.48;;
23590;SDS011;11973;52.098;7.582;2023-05-19T12:13:25;1.38;;;1.27;;
23590;SDS011;11973;52.098;7.582;2023-05-19T12:15:52;3.15;;;1.33;;
23590;SDS011;11973;52.098;7.582;2023-05-19T12:18:18;2.25;;;1.65;;
23590;SDS011;11973;52.098;7.582;2023-05-19T12:20:44;1.45;;;1.40;;
23590;SDS011;11973;52.098;7.582;2023-05-19T12:23:10;6.15;;;1.40;;
23590;SDS011;11973;52.098;7.582;2023-05-19T12:25:38;8.40;;;1.70;;
23590;SDS011;11973;52.098;7.582;2023-05-19T12:28:04;1.50;;;1.38;;
23590;SDS011;11973;52.098;7.582;2023-05-19T12:30:30;1.80;;;1.58;;
23590;SDS011;11973;52.098;7.582;2023-05-19T12:32:56;2.22;;;1.30;;
23590;SDS011;11973;52.098;7.582;2023-05-19T12:35:26;1.95;;;1.60;;
23590;SDS011;11973;52.098;7.582;2023-05-19T12:37:53;3.40;;;1.30;;
23590;SDS011;11973;52.098;7.582;2023-05-19T12:40:19;1.10;;;1.10;;
23590;SDS011;11973;52.098;7.582;2023-05-19T12:42:45;2.67;;;1.40;;
23590;SDS011;11973;52.098;7.582;2023-05-19T12:45:12;1.45;;;1.33;;
23590;SDS011;11973;52.098;7.582;2023-05-19T12:47:38;1.25;;;1.20;;
23590;SDS011;11973;52.098;7.582;2023-05-19T12:50:04;1.58;;;1.30;;
23590;SDS011;11973;52.098;7.582;2023-05-19T12:52:50;1.85;;;1.10;;
23590;SDS011;11973;52.098;7.582;2023-05-19T12:55:16;1.98;;;1.20;;
23590;SDS011;11973;52.098;7.582;2023-05-19T12:57:43;1.15;;;1.05;;
23590;SDS011;11973;52.098;7.582;2023-05-19T13:00:13;1.30;;;1.30;;
23590;SDS011;11973;52.098;7.582;2023-05-19T13:02:57;7.15;;;1.05;;
23590;SDS011;11973;52.098;7.582;2023-05-19T13:05:25;1.65;;;1.30;;
23590;SDS011;11973;52.098;7.582;2023-05-19T13:07:55;3.25;;;1.10;;
23590;SDS011;11973;52.098;7.582;2023-05-19T13:10:23;1.05;;;1.05;;
23590;SDS011;11973;52.098;7.582;2023-05-19T13:12:54;2.20;;;1.10;;
23590;SDS011;11973;52.098;7.582;2023-05-19T13:15:24;1.67;;;1.20;;
23590;SDS011;11973;52.098;7.582;2023-05-19T13:18:05;2.65;;;1.23;;
23590;SDS011;11973;52.098;7.582;2023-05-19T13:20:33;1.58;;;1.58;;
23590;SDS011;11973;52.098;7.582;2023-05-19T13:22:59;2.53;;;1.00;;
23590;SDS011;11973;52.098;7.582;2023-05-19T13:25:25;19.35;;;1.58;;
23590;SDS011;11973;52.098;7.582;2023-05-19T13:27:52;1.35;;;1.00;;
23590;SDS011;11973;52.098;7.582;2023-05-19T13:30:19;31.38;;;2.17;;
23590;SDS011;11973;52.098;7.582;2023-05-19T13:32:47;2.00;;;1.40;;
23590;SDS011;11973;52.098;7.582;2023-05-19T13:35:13;1.58;;;1.40;;
23590;SDS011;11973;52.098;7.582;2023-05-19T13:37:42;1.55;;;1.05;;
23590;SDS011;11973;52.098;7.582;2023-05-19T13:40:08;4.03;;;1.38;;
23590;SDS011;11973;52.098;7.582;2023-05-19T13:42:35;1.98;;;1.60;;
23590;SDS011;11973;52.098;7.582;2023-05-19T13:45:02;1.08;;;1.08;;
23590;SDS011;11973;52.098;7.582;2023-05-19T13:47:28;1.15;;;0.98;;
23590;SDS011;11973;52.098;7.582;2023-05-19T13:49:54;4.47;;;1.20;;
23590;SDS011;11973;52.098;7.582;2023-05-19T13:52:20;1.30;;;1.20;;
23590;SDS011;11973;52.098;7.582;2023-05-19T13:54:46;1.65;;;1.08;;
23590;SDS011;11973;52.098;7.582;2023-05-19T13:57:12;1.10;;;1.10;;
23590;SDS011;11973;52.098;7.582;2023-05-19T13:59:39;1.83;;;1.08;;
23590;SDS011;11973;52.098;7.582;2023-05-19T14:02:05;1.10;;;1.10;;
23590;SDS011;11973;52.098;7.582;2023-05-19T14:04:31;1.25;;;1.25;;
23590;SDS011;11973;52.098;7.582;2023-05-19T14:07:00;1.17;;;1.17;;
23590;SDS011;11973;52.098;7.582;2023-05-19T14:09:26;1.33;;;1.23;;
23590;SDS011;11973;52.098;7.582;2023-05-19T14:11:52;1.85;;;1.60;;
23590;SDS011;11973;52.098;7.582;2023-05-19T14:14:18;1.58;;;1.05;;
23590;SDS011;11973;52.098;7.582;2023-05-19T14:16:43;2.15;;;1.00;;
23590;SDS011;11973;52.098;7.582;2023-05-19T14:19:09;2.35;;;0.90;;
23590;SDS011;11973;52.098;7.582;2023-05-19T14:21:35;1.80;;;1.20;;
23590;SDS011;11973;52.098;7.582;2023-05-19T14:24:02;1.15;;;0.93;;
23590;SDS011;11973;52.098;7.582;2023-05-19T14:26:28;2.83;;;1.25;;
23590;SDS011;11973;52.098;7.582;2023-05-19T14:28:53;1.00;;;1.00;;
23590;SDS011;11973;52.098;7.582;2023-05-19T14:31:21;2.15;;;0.88;;
23590;SDS011;11973;52.098;7.582;2023-05-19T14:33:46;1.40;;;1.13;;
23590;SDS011;11973;52.098;7.582;2023-05-19T14:36:12;3.33;;;1.48;;
23590;SDS011;11973;52.098;7.582;2023-05-19T14:38:38;2.72;;;1.17;;
23590;SDS011;11973;52.098;7.582;2023-05-19T14:41:04;1.38;;;1.02;;
23590;SDS011;11973;52.098;7.582;2023-05-19T14:43:30;3.22;;;1.10;;
23590;SDS011;11973;52.098;7.582;2023-05-19T14:45:56;1.15;;;1.05;;
23590;SDS011;11973;52.098;7.582;2023-05-19T14:48:22;1.45;;;1.20;;
23590;SDS011;11973;52.098;7.582;2023-05-19T14:50:48;1.35;;;1.10;;
23590;SDS011;11973;52.098;7.582;2023-05-19T14:53:13;2.20;;;0.90;;
23590;SDS011;11973;52.098;7.582;2023-05-19T14:55:40;1.42;;;0.90;;
23590;SDS011;11973;52.098;7.582;2023-05-19T14:58:07;2.08;;;0.98;;
23590;SDS011;11973;52.098;7.582;2023-05-19T15:00:33;0.98;;;0.98;;
23590;SDS011;11973;52.098;7.582;2023-05-19T15:02:59;2.10;;;0.82;;
23590;SDS011;11973;52.098;7.582;2023-05-19T15:05:25;4.07;;;0.98;;
23590;SDS011;11973;52.098;7.582;2023-05-19T15:07:51;0.95;;;0.90;;
23590;SDS011;11973;52.098;7.582;2023-05-19T15:10:17;0.85;;;0.82;;
23590;SDS011;11973;52.098;7.582;2023-05-19T15:12:46;1.00;;;1.00;;
23590;SDS011;11973;52.098;7.582;2023-05-19T15:15:12;1.35;;;0.90;;
23590;SDS011;11973;52.098;7.582;2023-05-19T15:17:40;1.27;;;1.27;;
23590;SDS011;11973;52.098;7.582;2023-05-19T15:20:06;1.13;;;1.13;;
23590;SDS011;11973;52.098;7.582;2023-05-19T15:22:33;1.10;;;1.10;;
23590;SDS011;11973;52.098;7.582;2023-05-19T15:24:58;1.10;;;1.00;;
23590;SDS011;11973;52.098;7.582;2023-05-19T15:27:28;1.27;;;0.80;;
23590;SDS011;11973;52.098;7.582;2023-05-19T15:29:53;3.10;;;0.88;;
23590;SDS011;11973;52.098;7.582;2023-05-19T15:32:19;20.48;;;7.63;;
23590;SDS011;11973;52.098;7.582;2023-05-19T15:34:45;1.77;;;1.67;;
23590;SDS011;11973;52.098;7.582;2023-05-19T15:37:11;1.15;;;1.15;;
23590;SDS011;11973;52.098;7.582;2023-05-19T15:39:36;22.25;;;7.50;;
23590;SDS011;11973;52.098;7.582;2023-05-19T15:42:02;8.63;;;4.82;;
23590;SDS011;11973;52.098;7.582;2023-05-19T15:44:28;1.30;;;1.30;;
23590;SDS011;11973;52.098;7.582;2023-05-19T15:46:54;1.00;;;1.00;;
23590;SDS011;11973;52.098;7.582;2023-05-19T15:49:22;1.40;;;0.80;;
23590;SDS011;11973;52.098;7.582;2023-05-19T15:51:49;1.00;;;1.00;;
23590;SDS011;11973;52.098;7.582;2023-05-19T15:54:14;1.00;;;1.00;;
23590;SDS011;11973;52.098;7.582;2023-05-19T15:56:40;0.90;;;0.90;;
23590;SDS011;11973;52.098;7.582;2023-05-19T15:59:06;1.40;;;0.95;;
23590;SDS011;11973;52.098;7.582;2023-05-19T16:01:32;2.00;;;1.05;;
23590;SDS011;11973;52.098;7.582;2023-05-19T16:03:59;0.95;;;0.95;;
23590;SDS011;11973;52.098;7.582;2023-05-19T16:06:27;1.90;;;1.10;;
23590;SDS011;11973;52.098;7.582;2023-05-19T16:08:53;1.27;;;1.17;;
23590;SDS011;11973;52.098;7.582;2023-05-19T16:11:19;1.40;;;1.38;;
23590;SDS011;11973;52.098;7.582;2023-05-19T16:13:47;1.20;;;1.10;;
23590;SDS011;11973;52.098;7.582;2023-05-19T16:16:13;1.20;;;1.20;;
23590;SDS011;11973;52.098;7.582;2023-05-19T16:18:39;1.20;;;1.20;;
23590;SDS011;11973;52.098;7.582;2023-05-19T16:21:05;1.23;;;1.23;;
23590;SDS011;11973;52.098;7.582;2023-05-19T16:23:30;3.13;;;0.98;;
23590;SDS011;11973;52.098;7.582;2023-05-19T16:25:56;1.25;;;1.20;;
23590;SDS011;11973;52.098;7.582;2023-05-19T16:28:22;1.48;;;0.90;;
23590;SDS011;11973;52.098;7.582;2023-05-19T16:30:48;1.13;;;1.00;;
23590;SDS011;11973;52.098;7.582;2023-05-19T16:33:14;1.30;;;1.20;;
23590;SDS011;11973;52.098;7.582;2023-05-19T16:35:40;1.30;;;1.20;;
23590;SDS011;11973;52.098;7.582;2023-05-19T16:38:06;1.63;;;1.48;;
23590;SDS011;11973;52.098;7.582;2023-05-19T16:40:31;4.68;;;2.58;;
23590;SDS011;11973;52.098;7.582;2023-05-19T16:42:57;2.67;;;1.30;;
23590;SDS011;11973;52.098;7.582;2023-05-19T16:45:23;5.40;;;4.50;;
23590;SDS011;11973;52.098;7.582;2023-05-19T16:47:50;4.63;;;4.13;;
23590;SDS011;11973;52.098;7.582;2023-05-19T16:50:16;5.32;;;3.40;;
23590;SDS011;11973;52.098;7.582;2023-05-19T16:52:42;3.47;;;3.28;;
23590;SDS011;11973;52.098;7.582;2023-05-19T16:55:07;1.20;;;1.08;;
23590;SDS011;11973;52.098;7.582;2023-05-19T16:57:33;1.70;;;1.60;;
23590;SDS011;11973;52.098;7.582;2023-05-19T16:59:59;1.63;;;1.52;;
23590;SDS011;11973;52.098;7.582;2023-05-19T17:02:25;1.08;;;1.08;;
23590;SDS011;11973;52.098;7.582;2023-05-19T17:04:51;1.17;;;1.13;;
23590;SDS011;11973;52.098;7.582;2023-05-19T17:07:16;1.77;;;1.23;;
23590;SDS011;11973;52.098;7.582;2023-05-19T17:09:42;3.75;;;3.65;;
23590;SDS011;11973;52.098;7.582;2023-05-19T17:12:08;6.38;;;6.03;;
23590;SDS011;11973;52.098;7.582;2023-05-19T17:14:35;10.02;;;1.75;;
23590;SDS011;11973;52.098;7.582;2023-05-19T17:17:02;1.75;;;1.40;;
23590;SDS011;11973;52.098;7.582;2023-05-19T17:19:27;1.60;;;1.33;;
23590;SDS011;11973;52.098;7.582;2023-05-19T17:21:53;1.15;;;1.05;;
23590;SDS011;11973;52.098;7.582;2023-05-19T17:24:19;1.55;;;1.30;;
23590;SDS011;11973;52.098;7.582;2023-05-19T17:26:45;1.75;;;1.20;;
23590;SDS011;11973;52.098;7.582;2023-05-19T17:29:12;2.25;;;1.35;;
23590;SDS011;11973;52.098;7.582;2023-05-19T17:31:38;3.15;;;1.00;;
23590;SDS011;11973;52.098;7.582;2023-05-19T17:34:06;2.33;;;0.95;;
23590;SDS011;11973;52.098;7.582;2023-05-19T17:36:32;3.17;;;1.05;;
23590;SDS011;11973;52.098;7.582;2023-05-19T17:38:57;1.48;;;1.17;;
23590;SDS011;11973;52.098;7.582;2023-05-19T17:41:24;1.00;;;1.00;;
23590;SDS011;11973;52.098;7.582;2023-05-19T17:43:50;1.08;;;1.08;;
23590;SDS011;11973;52.098;7.582;2023-05-19T17:46:16;2.08;;;1.00;;
23590;SDS011;11973;52.098;7.582;2023-05-19T17:48:41;1.10;;;1.10;;
23590;SDS011;11973;52.098;7.582;2023-05-19T17:51:08;0.90;;;0.90;;
23590;SDS011;11973;52.098;7.582;2023-05-19T17:53:33;1.10;;;1.10;;
23590;SDS011;11973;52.098;7.582;2023-05-19T17:56:00;3.20;;;1.30;;
23590;SDS011;11973;52.098;7.582;2023-05-19T17:58:27;1.00;;;1.00;;
23590;SDS011;11973;52.098;7.582;2023-05-19T18:00:53;1.27;;;1.27;;
23590;SDS011;11973;52.098;7.582;2023-05-19T18:03:20;2.65;;;0.90;;
23590;SDS011;11973;52.098;7.582;2023-05-19T18:05:46;1.17;;;1.17;;
23590;SDS011;11973;52.098;7.582;2023-05-19T18:08:13;2.25;;;1.02;;
23590;SDS011;11973;52.098;7.582;2023-05-19T18:10:42;3.63;;;1.20;;
23590;SDS011;11973;52.098;7.582;2023-05-19T18:13:10;0.75;;;0.75;;
23590;SDS011;11973;52.098;7.582;2023-05-19T18:15:39;1.42;;;0.70;;
23590;SDS011;11973;52.098;7.582;2023-05-19T18:18:05;1.25;;;1.25;;
23590;SDS011;11973;52.098;7.582;2023-05-19T18:20:34;1.30;;;1.20;;
23590;SDS011;11973;52.098;7.582;2023-05-19T18:23:02;0.80;;;0.80;;
23590;SDS011;11973;52.098;7.582;2023-05-19T18:25:27;1.13;;;1.10;;
23590;SDS011;11973;52.098;7.582;2023-05-19T18:27:53;1.42;;;0.90;;
23590;SDS011;11973;52.098;7.582;2023-05-19T18:30:22;0.80;;;0.80;;
23590;SDS011;11973;52.098;7.582;2023-05-19T18:32:48;0.77;;;0.77;;
23590;SDS011;11973;52.098;7.582;2023-05-19T18:35:14;1.67;;;0.90;;
23590;SDS011;11973;52.098;7.582;2023-05-19T18:37:40;1.85;;;1.13;;
23590;SDS011;11973;52.098;7.582;2023-05-19T18:40:06;3.95;;;1.17;;
23590;SDS011;11973;52.098;7.582;2023-05-19T18:42:32;1.00;;;1.00;;
23590;SDS011;11973;52.098;7.582;2023-05-19T18:44:58;1.25;;;1.25;;
23590;SDS011;11973;52.098;7.582;2023-05-19T18:47:23;1.85;;;1.25;;
23590;SDS011;11973;52.098;7.582;2023-05-19T18:49:49;1.27;;;1.27;;
23590;SDS011;11973;52.098;7.582;2023-05-19T18:52:15;1.60;;;1.60;;